sensor_id;sensor_type;location;lat;lon;timestamp;temperature;humidity
2767;DHT22;1391;46.742;11.636;2023-03-01T00:01:32;3.30;32.30
2767;DHT22;1391;46.742;11.636;2023-03-01T00:03:59;3.70;31.90
2767;DHT22;1391;46.742;11.636;2023-03-01T00:06:30;4.00;30.90
2767;DHT22;1391;46.742;11.636;2023-03-01T00:08:59;3.70;30.50
2767;DHT22;1391;46.742;11.636;2023-03-01T00:11:29;3.70;31.70
2767;DHT22;1391;46.742;11.636;2023-03-01T00:14:05;3.60;31.00
2767;DHT22;1391;46.742;11.636;2023-03-01T00:16:42;3.80;31.90
2767;DHT22;1391;46.742;11.636;2023-03-01T00:19:20;4.00;31.40
2767;DHT22;1391;46.742;11.636;2023-03-01T00:25:42;3.90;31.20
2767;DHT22;1391;46.742;11.636;2023-03-01T00:28:09;3.30;31.80
2767;DHT22;1391;46.742;11.636;2023-03-01T00:31:02;3.20;32.40
2767;DHT22;1391;46.742;11.636;2023-03-01T00:33:33;3.70;32.40
2767;DHT22;1391;46.742;11.636;2023-03-01T00:36:08;3.30;32.20
2767;DHT22;1391;46.742;11.636;2023-03-01T00:38:40;3.70;31.90
2767;DHT22;1391;46.742;11.636;2023-03-01T00:41:09;4.00;31.50
2767;DHT22;1391;46.742;11.636;2023-03-01T00:43:38;3.80;31.00
2767;DHT22;1391;46.742;11.636;2023-03-01T00:46:07;3.70;32.00
2767;DHT22;1391;46.742;11.636;2023-03-01T00:48:39;4.00;31.40
2767;DHT22;1391;46.742;11.636;2023-03-01T00:51:11;3.90;31.40
2767;DHT22;1391;46.742;11.636;2023-03-01T00:53:44;3.80;31.70
2767;DHT22;1391;46.742;11.636;2023-03-01T00:56:23;3.90;32.50
2767;DHT22;1391;46.742;11.636;2023-03-01T00:59:05;3.50;32.50
2767;DHT22;1391;46.742;11.636;2023-03-01T01:01:32;3.00;34.40
2767;DHT22;1391;46.742;11.636;2023-03-01T01:08:06;3.00;33.40
2767;DHT22;1391;46.742;11.636;2023-03-01T01:10:58;3.30;34.00
2767;DHT22;1391;46.742;11.636;2023-03-01T01:13:58;3.10;34.00
2767;DHT22;1391;46.742;11.636;2023-03-01T01:20:36;2.90;34.60
2767;DHT22;1391;46.742;11.636;2023-03-01T01:23:08;2.70;34.60
2767;DHT22;1391;46.742;11.636;2023-03-01T01:25:36;3.10;35.00
2767;DHT22;1391;46.742;11.636;2023-03-01T01:28:04;2.80;34.50
2767;DHT22;1391;46.742;11.636;2023-03-01T01:30:31;3.20;34.00
2767;DHT22;1391;46.742;11.636;2023-03-01T01:33:18;2.90;35.20
2767;DHT22;1391;46.742;11.636;2023-03-01T01:36:16;2.70;35.30
2767;DHT22;1391;46.742;11.636;2023-03-01T01:39:14;3.10;35.00
2767;DHT22;1391;46.742;11.636;2023-03-01T01:41:43;2.80;34.30
2767;DHT22;1391;46.742;11.636;2023-03-01T01:48:15;2.90;33.70
2767;DHT22;1391;46.742;11.636;2023-03-01T01:50:46;3.10;34.10
2767;DHT22;1391;46.742;11.636;2023-03-01T01:53:27;3.00;34.90
2767;DHT22;1391;46.742;11.636;2023-03-01T01:56:17;2.40;35.40
2767;DHT22;1391;46.742;11.636;2023-03-01T01:58:54;2.80;34.90
2767;DHT22;1391;46.742;11.636;2023-03-01T02:01:38;2.50;35.60
2767;DHT22;1391;46.742;11.636;2023-03-01T02:04:24;2.50;35.40
2767;DHT22;1391;46.742;11.636;2023-03-01T02:07:02;2.60;35.30
2767;DHT22;1391;46.742;11.636;2023-03-01T02:09:48;2.50;35.50
2767;DHT22;1391;46.742;11.636;2023-03-01T02:12:27;2.50;35.80
2767;DHT22;1391;46.742;11.636;2023-03-01T02:15:13;2.40;35.00
2767;DHT22;1391;46.742;11.636;2023-03-01T02:17:40;2.70;34.60
2767;DHT22;1391;46.742;11.636;2023-03-01T02:20:14;2.40;36.20
2767;DHT22;1391;46.742;11.636;2023-03-01T02:22:49;2.80;35.20
2767;DHT22;1391;46.742;11.636;2023-03-01T02:25:41;2.80;35.50
2767;DHT22;1391;46.742;11.636;2023-03-01T02:28:31;2.40;34.90
2767;DHT22;1391;46.742;11.636;2023-03-01T02:31:09;2.50;35.90
2767;DHT22;1391;46.742;11.636;2023-03-01T02:34:21;2.60;36.10
2767;DHT22;1391;46.742;11.636;2023-03-01T02:36:59;2.90;36.20
2767;DHT22;1391;46.742;11.636;2023-03-01T02:39:56;2.70;36.50
2767;DHT22;1391;46.742;11.636;2023-03-01T02:42:30;2.70;35.10
2767;DHT22;1391;46.742;11.636;2023-03-01T02:45:00;2.50;35.70
2767;DHT22;1391;46.742;11.636;2023-03-01T02:47:29;3.00;35.50
2767;DHT22;1391;46.742;11.636;2023-03-01T02:49:56;2.60;35.70
2767;DHT22;1391;46.742;11.636;2023-03-01T02:52:33;2.40;35.60
2767;DHT22;1391;46.742;11.636;2023-03-01T02:55:09;2.80;35.40
2767;DHT22;1391;46.742;11.636;2023-03-01T02:57:40;3.10;34.90
2767;DHT22;1391;46.742;11.636;2023-03-01T03:00:17;2.80;34.60
2767;DHT22;1391;46.742;11.636;2023-03-01T03:02:57;2.40;35.70
2767;DHT22;1391;46.742;11.636;2023-03-01T05:22:02;2.30;36.80
2767;DHT22;1391;46.742;11.636;2023-03-01T05:24:32;2.40;35.40
2767;DHT22;1391;46.742;11.636;2023-03-01T05:27:04;2.00;35.80
2767;DHT22;1391;46.742;11.636;2023-03-01T05:29:48;2.60;36.40
2767;DHT22;1391;46.742;11.636;2023-03-01T05:32:30;2.10;35.90
2767;DHT22;1391;46.742;11.636;2023-03-01T05:34:57;2.50;35.90
2767;DHT22;1391;46.742;11.636;2023-03-01T05:37:26;2.10;36.60
2767;DHT22;1391;46.742;11.636;2023-03-01T05:39:54;2.40;36.00
2767;DHT22;1391;46.742;11.636;2023-03-01T05:42:22;2.50;36.80
2767;DHT22;1391;46.742;11.636;2023-03-01T05:44:53;2.20;36.70
2767;DHT22;1391;46.742;11.636;2023-03-01T05:47:25;2.40;36.60
2767;DHT22;1391;46.742;11.636;2023-03-01T05:49:54;2.00;36.50
2767;DHT22;1391;46.742;11.636;2023-03-01T05:52:22;2.20;37.20
2767;DHT22;1391;46.742;11.636;2023-03-01T05:54:52;1.90;37.10
2767;DHT22;1391;46.742;11.636;2023-03-01T05:57:19;2.10;36.40
2767;DHT22;1391;46.742;11.636;2023-03-01T05:59:48;2.20;36.70
2767;DHT22;1391;46.742;11.636;2023-03-01T06:02:15;2.00;38.20
2767;DHT22;1391;46.742;11.636;2023-03-01T06:04:43;2.50;36.50
2767;DHT22;1391;46.742;11.636;2023-03-01T06:07:12;2.30;36.20
2767;DHT22;1391;46.742;11.636;2023-03-01T06:09:39;2.30;35.60
2767;DHT22;1391;46.742;11.636;2023-03-01T06:12:10;2.50;35.90
2767;DHT22;1391;46.742;11.636;2023-03-01T06:14:40;2.50;35.60
2767;DHT22;1391;46.742;11.636;2023-03-01T06:17:08;2.50;35.40
2767;DHT22;1391;46.742;11.636;2023-03-01T06:19:39;2.70;35.70
2767;DHT22;1391;46.742;11.636;2023-03-01T06:22:10;2.40;35.40
2767;DHT22;1391;46.742;11.636;2023-03-01T06:24:39;2.00;35.60
2767;DHT22;1391;46.742;11.636;2023-03-01T06:27:06;2.40;35.40
2767;DHT22;1391;46.742;11.636;2023-03-01T06:29:35;2.30;35.70
2767;DHT22;1391;46.742;11.636;2023-03-01T06:32:03;2.50;36.30
2767;DHT22;1391;46.742;11.636;2023-03-01T06:34:30;2.20;35.70
2767;DHT22;1391;46.742;11.636;2023-03-01T06:36:58;2.50;36.10
2767;DHT22;1391;46.742;11.636;2023-03-01T06:39:28;2.10;36.40
2767;DHT22;1391;46.742;11.636;2023-03-01T06:41:55;2.40;35.60
2767;DHT22;1391;46.742;11.636;2023-03-01T06:44:25;2.70;35.90
2767;DHT22;1391;46.742;11.636;2023-03-01T06:46:54;2.50;35.20
2767;DHT22;1391;46.742;11.636;2023-03-01T06:49:21;2.30;35.00
2767;DHT22;1391;46.742;11.636;2023-03-01T06:51:51;2.40;35.40
2767;DHT22;1391;46.742;11.636;2023-03-01T06:54:19;2.50;35.20
2767;DHT22;1391;46.742;11.636;2023-03-01T06:56:48;2.70;35.00
2767;DHT22;1391;46.742;11.636;2023-03-01T06:59:18;2.40;34.80
2767;DHT22;1391;46.742;11.636;2023-03-01T07:01:48;2.80;35.00
2767;DHT22;1391;46.742;11.636;2023-03-01T07:04:17;2.60;34.60
2767;DHT22;1391;46.742;11.636;2023-03-01T07:06:44;2.80;34.00
2767;DHT22;1391;46.742;11.636;2023-03-01T07:09:11;2.80;34.20
2767;DHT22;1391;46.742;11.636;2023-03-01T07:11:39;3.00;32.60
2767;DHT22;1391;46.742;11.636;2023-03-01T07:14:07;3.40;32.90
2767;DHT22;1391;46.742;11.636;2023-03-01T07:16:34;3.10;32.60
2767;DHT22;1391;46.742;11.636;2023-03-01T07:19:01;3.30;34.00
2767;DHT22;1391;46.742;11.636;2023-03-01T07:21:37;3.40;31.30
2767;DHT22;1391;46.742;11.636;2023-03-01T07:24:15;3.40;32.10
2767;DHT22;1391;46.742;11.636;2023-03-01T07:26:55;3.20;32.40
2767;DHT22;1391;46.742;11.636;2023-03-01T07:29:27;3.90;32.50
2767;DHT22;1391;46.742;11.636;2023-03-01T07:32:04;4.30;30.20
2767;DHT22;1391;46.742;11.636;2023-03-01T07:34:43;4.30;29.10
2767;DHT22;1391;46.742;11.636;2023-03-01T07:37:30;4.30;29.80
2767;DHT22;1391;46.742;11.636;2023-03-01T07:40:08;4.60;28.60
2767;DHT22;1391;46.742;11.636;2023-03-01T07:42:43;4.60;29.50
2767;DHT22;1391;46.742;11.636;2023-03-01T07:45:17;5.10;28.30
2767;DHT22;1391;46.742;11.636;2023-03-01T07:48:05;5.00;27.40
2767;DHT22;1391;46.742;11.636;2023-03-01T07:50:43;5.00;26.80
2767;DHT22;1391;46.742;11.636;2023-03-01T07:53:15;5.10;27.70
2767;DHT22;1391;46.742;11.636;2023-03-01T07:55:46;5.10;27.90
2767;DHT22;1391;46.742;11.636;2023-03-01T07:58:16;5.30;27.50
2767;DHT22;1391;46.742;11.636;2023-03-01T08:00:44;5.40;27.50
2767;DHT22;1391;46.742;11.636;2023-03-01T08:03:11;5.40;27.70
2767;DHT22;1391;46.742;11.636;2023-03-01T08:05:38;5.90;28.10
2767;DHT22;1391;46.742;11.636;2023-03-01T08:08:06;5.50;26.90
2767;DHT22;1391;46.742;11.636;2023-03-01T08:10:42;5.90;28.80
2767;DHT22;1391;46.742;11.636;2023-03-01T08:13:14;5.70;27.10
2767;DHT22;1391;46.742;11.636;2023-03-01T08:15:52;6.40;27.80
2767;DHT22;1391;46.742;11.636;2023-03-01T08:18:25;6.60;26.10
2767;DHT22;1391;46.742;11.636;2023-03-01T08:21:03;6.90;26.00
2767;DHT22;1391;46.742;11.636;2023-03-01T08:23:54;6.60;25.60
2767;DHT22;1391;46.742;11.636;2023-03-01T09:23:02;7.80;24.10
2767;DHT22;1391;46.742;11.636;2023-03-01T09:25:30;7.60;22.70
2767;DHT22;1391;46.742;11.636;2023-03-01T09:27:57;7.80;22.80
2767;DHT22;1391;46.742;11.636;2023-03-01T09:30:25;8.20;22.40
2767;DHT22;1391;46.742;11.636;2023-03-01T09:32:58;8.30;22.30
2767;DHT22;1391;46.742;11.636;2023-03-01T09:35:42;8.30;22.70
2767;DHT22;1391;46.742;11.636;2023-03-01T09:38:15;7.80;21.90
2767;DHT22;1391;46.742;11.636;2023-03-01T09:40:46;8.20;21.20
2767;DHT22;1391;46.742;11.636;2023-03-01T09:43:36;8.60;22.20
2767;DHT22;1391;46.742;11.636;2023-03-01T20:12:27;6.80;37.10
2767;DHT22;1391;46.742;11.636;2023-03-01T20:14:55;6.60;37.80
2767;DHT22;1391;46.742;11.636;2023-03-01T20:17:27;6.90;37.80
2767;DHT22;1391;46.742;11.636;2023-03-01T20:19:54;6.80;38.80
2767;DHT22;1391;46.742;11.636;2023-03-01T20:23:02;7.00;39.20
2767;DHT22;1391;46.742;11.636;2023-03-01T20:25:45;6.70;39.60
2767;DHT22;1391;46.742;11.636;2023-03-01T20:28:17;6.90;40.50
2767;DHT22;1391;46.742;11.636;2023-03-01T20:30:46;6.90;40.90
2767;DHT22;1391;46.742;11.636;2023-03-01T20:33:14;6.90;41.80
2767;DHT22;1391;46.742;11.636;2023-03-01T20:35:42;6.80;41.20
2767;DHT22;1391;46.742;11.636;2023-03-01T20:38:09;6.80;42.00
2767;DHT22;1391;46.742;11.636;2023-03-01T20:40:37;6.60;42.70
2767;DHT22;1391;46.742;11.636;2023-03-01T20:43:04;6.30;42.40
2767;DHT22;1391;46.742;11.636;2023-03-01T20:45:32;6.30;42.50
2767;DHT22;1391;46.742;11.636;2023-03-01T20:48:00;6.90;42.20
2767;DHT22;1391;46.742;11.636;2023-03-01T20:50:27;6.70;42.40
2767;DHT22;1391;46.742;11.636;2023-03-01T20:52:54;6.80;42.40
2767;DHT22;1391;46.742;11.636;2023-03-01T20:55:21;6.70;42.00
2767;DHT22;1391;46.742;11.636;2023-03-01T20:57:49;6.80;42.40
2767;DHT22;1391;46.742;11.636;2023-03-01T21:00:16;6.50;43.30
2767;DHT22;1391;46.742;11.636;2023-03-01T21:02:45;6.40;43.00
2767;DHT22;1391;46.742;11.636;2023-03-01T21:05:13;6.20;42.60
2767;DHT22;1391;46.742;11.636;2023-03-01T21:07:40;6.20;42.60
2767;DHT22;1391;46.742;11.636;2023-03-01T21:10:10;6.90;43.40
2767;DHT22;1391;46.742;11.636;2023-03-01T21:12:37;6.60;42.80
2767;DHT22;1391;46.742;11.636;2023-03-01T21:15:05;6.30;42.30
2767;DHT22;1391;46.742;11.636;2023-03-01T21:17:34;6.70;42.90
2767;DHT22;1391;46.742;11.636;2023-03-01T21:20:04;6.90;43.60
2767;DHT22;1391;46.742;11.636;2023-03-01T21:22:32;6.40;43.70
2767;DHT22;1391;46.742;11.636;2023-03-01T21:25:00;6.50;44.10
2767;DHT22;1391;46.742;11.636;2023-03-01T21:27:27;6.90;43.40
2767;DHT22;1391;46.742;11.636;2023-03-01T21:29:54;6.40;43.50
2767;DHT22;1391;46.742;11.636;2023-03-01T21:32:23;6.50;44.00
2767;DHT22;1391;46.742;11.636;2023-03-01T21:34:50;6.60;43.00
2767;DHT22;1391;46.742;11.636;2023-03-01T21:37:19;6.70;42.40
2767;DHT22;1391;46.742;11.636;2023-03-01T21:39:52;6.80;42.10
2767;DHT22;1391;46.742;11.636;2023-03-01T21:42:20;6.70;42.10
2767;DHT22;1391;46.742;11.636;2023-03-01T21:44:47;6.30;42.40
2767;DHT22;1391;46.742;11.636;2023-03-01T21:47:14;6.30;42.90
2767;DHT22;1391;46.742;11.636;2023-03-01T21:49:41;6.80;42.60
2767;DHT22;1391;46.742;11.636;2023-03-01T21:52:09;6.50;41.90
2767;DHT22;1391;46.742;11.636;2023-03-01T21:54:43;6.70;41.00
2767;DHT22;1391;46.742;11.636;2023-03-01T21:57:11;6.60;42.50
2767;DHT22;1391;46.742;11.636;2023-03-01T21:59:38;6.40;42.40
2767;DHT22;1391;46.742;11.636;2023-03-01T22:02:06;6.90;43.00
2767;DHT22;1391;46.742;11.636;2023-03-01T22:04:36;6.30;42.90
2767;DHT22;1391;46.742;11.636;2023-03-01T22:07:04;6.70;41.80
2767;DHT22;1391;46.742;11.636;2023-03-01T22:09:31;6.80;41.70
2767;DHT22;1391;46.742;11.636;2023-03-01T22:12:05;6.90;41.80
2767;DHT22;1391;46.742;11.636;2023-03-01T22:14:32;6.90;41.70
2767;DHT22;1391;46.742;11.636;2023-03-01T22:17:00;6.60;41.20
2767;DHT22;1391;46.742;11.636;2023-03-01T22:19:27;6.60;43.40
2767;DHT22;1391;46.742;11.636;2023-03-01T22:21:55;6.50;43.40
2767;DHT22;1391;46.742;11.636;2023-03-01T22:24:23;6.50;43.60
2767;DHT22;1391;46.742;11.636;2023-03-01T22:26:51;6.40;43.70
2767;DHT22;1391;46.742;11.636;2023-03-01T22:29:22;6.50;44.70
2767;DHT22;1391;46.742;11.636;2023-03-01T22:31:51;6.10;43.10
2767;DHT22;1391;46.742;11.636;2023-03-01T22:34:19;6.80;43.20
2767;DHT22;1391;46.742;11.636;2023-03-01T22:36:47;6.50;42.80
2767;DHT22;1391;46.742;11.636;2023-03-01T22:39:16;6.40;43.20
2767;DHT22;1391;46.742;11.636;2023-03-01T22:41:46;6.10;42.60
2767;DHT22;1391;46.742;11.636;2023-03-01T22:44:16;6.30;42.40
2767;DHT22;1391;46.742;11.636;2023-03-01T22:46:46;6.20;42.50
2767;DHT22;1391;46.742;11.636;2023-03-01T22:49:13;6.40;43.00
2767;DHT22;1391;46.742;11.636;2023-03-01T22:51:42;6.30;42.10
2767;DHT22;1391;46.742;11.636;2023-03-01T22:54:12;6.20;42.10
2767;DHT22;1391;46.742;11.636;2023-03-01T22:56:39;6.50;42.20
2767;DHT22;1391;46.742;11.636;2023-03-01T22:59:09;6.90;41.90
2767;DHT22;1391;46.742;11.636;2023-03-01T23:01:40;6.40;42.20
2767;DHT22;1391;46.742;11.636;2023-03-01T23:04:10;6.50;42.50
2767;DHT22;1391;46.742;11.636;2023-03-01T23:06:38;6.50;42.50
2767;DHT22;1391;46.742;11.636;2023-03-01T23:09:15;6.10;42.00
2767;DHT22;1391;46.742;11.636;2023-03-01T23:11:43;6.40;41.70
2767;DHT22;1391;46.742;11.636;2023-03-01T23:14:10;6.80;42.50
2767;DHT22;1391;46.742;11.636;2023-03-01T23:16:38;6.40;41.60
2767;DHT22;1391;46.742;11.636;2023-03-01T23:19:05;6.40;41.90
2767;DHT22;1391;46.742;11.636;2023-03-01T23:21:34;6.50;42.30
2767;DHT22;1391;46.742;11.636;2023-03-01T23:24:01;6.40;41.40
2767;DHT22;1391;46.742;11.636;2023-03-01T23:26:29;6.90;41.20
2767;DHT22;1391;46.742;11.636;2023-03-01T23:28:57;6.70;40.40
2767;DHT22;1391;46.742;11.636;2023-03-01T23:31:24;6.60;39.90
2767;DHT22;1391;46.742;11.636;2023-03-01T23:33:55;7.00;40.30
2767;DHT22;1391;46.742;11.636;2023-03-01T23:36:25;6.90;40.40
2767;DHT22;1391;46.742;11.636;2023-03-01T23:38:56;6.60;39.80
2767;DHT22;1391;46.742;11.636;2023-03-01T23:41:25;6.80;40.30
2767;DHT22;1391;46.742;11.636;2023-03-01T23:43:57;6.80;39.70
2767;DHT22;1391;46.742;11.636;2023-03-01T23:46:27;7.00;39.80
2767;DHT22;1391;46.742;11.636;2023-03-01T23:48:57;6.90;40.00
2767;DHT22;1391;46.742;11.636;2023-03-01T23:51:25;6.80;40.10
2767;DHT22;1391;46.742;11.636;2023-03-01T23:53:56;6.80;40.50
2767;DHT22;1391;46.742;11.636;2023-03-01T23:56:28;6.80;40.50
2767;DHT22;1391;46.742;11.636;2023-03-01T23:59:00;6.70;40.40
